sensor_id;sensor_type;location;lat;lon;timestamp;temperature;humidity
21312;DHT22;18076;52.154;10.570;2022-09-29T00:00:20;8.80;99.90
21312;DHT22;18076;52.154;10.570;2022-09-29T00:02:45;8.70;99.90
21312;DHT22;18076;52.154;10.570;2022-09-29T00:05:11;8.70;99.90
21312;DHT22;18076;52.154;10.570;2022-09-29T00:07:36;8.80;99.90
21312;DHT22;18076;52.154;10.570;2022-09-29T00:10:02;8.80;99.90
21312;DHT22;18076;52.154;10.570;2022-09-29T00:12:28;8.70;99.90
21312;DHT22;18076;52.154;10.570;2022-09-29T00:14:54;8.70;99.90
21312;DHT22;18076;52.154;10.570;2022-09-29T00:17:19;8.60;99.90
21312;DHT22;18076;52.154;10.570;2022-09-29T00:19:45;8.60;99.90
21312;DHT22;18076;52.154;10.570;2022-09-29T00:22:10;8.50;99.90
21312;DHT22;18076;52.154;10.570;2022-09-29T00:24:36;8.50;99.90
21312;DHT22;18076;52.154;10.570;2022-09-29T00:27:02;8.40;99.90
21312;DHT22;18076;52.154;10.570;2022-09-29T00:29:27;8.40;99.90
21312;DHT22;18076;52.154;10.570;2022-09-29T00:31:53;8.40;99.90
21312;DHT22;18076;52.154;10.570;2022-09-29T00:34:18;8.40;99.90
21312;DHT22;18076;52.154;10.570;2022-09-29T00:36:44;8.40;99.90
21312;DHT22;18076;52.154;10.570;2022-09-29T00:39:10;8.40;99.90
21312;DHT22;18076;52.154;10.570;2022-09-29T00:41:36;8.40;99.90
21312;DHT22;18076;52.154;10.570;2022-09-29T00:54:44;8.10;99.90
21312;DHT22;18076;52.154;10.570;2022-09-29T00:57:11;8.10;99.90
21312;DHT22;18076;52.154;10.570;2022-09-29T01:02:07;7.90;99.90
21312;DHT22;18076;52.154;10.570;2022-09-29T01:04:33;7.80;99.90
21312;DHT22;18076;52.154;10.570;2022-09-29T01:06:59;7.70;99.90
21312;DHT22;18076;52.154;10.570;2022-09-29T01:09:28;7.60;99.90
21312;DHT22;18076;52.154;10.570;2022-09-29T01:11:55;7.60;99.90
21312;DHT22;18076;52.154;10.570;2022-09-29T01:14:23;7.40;99.90
21312;DHT22;18076;52.154;10.570;2022-09-29T01:16:48;7.50;99.90
21312;DHT22;18076;52.154;10.570;2022-09-29T01:21:50;7.30;99.90
21312;DHT22;18076;52.154;10.570;2022-09-29T01:34:49;7.20;99.90
21312;DHT22;18076;52.154;10.570;2022-09-29T01:37:21;7.20;99.90
21312;DHT22;18076;52.154;10.570;2022-09-29T01:39:53;7.20;99.90
21312;DHT22;18076;52.154;10.570;2022-09-29T01:42:25;7.10;99.90
21312;DHT22;18076;52.154;10.570;2022-09-29T01:44:53;7.10;99.90
21312;DHT22;18076;52.154;10.570;2022-09-29T01:47:21;7.10;99.90
21312;DHT22;18076;52.154;10.570;2022-09-29T01:49:55;7.00;99.90
21312;DHT22;18076;52.154;10.570;2022-09-29T01:52:26;7.00;99.90
21312;DHT22;18076;52.154;10.570;2022-09-29T01:55:00;6.90;99.90
21312;DHT22;18076;52.154;10.570;2022-09-29T02:00:14;6.90;99.90
21312;DHT22;18076;52.154;10.570;2022-09-29T02:05:30;6.80;99.90
21312;DHT22;18076;52.154;10.570;2022-09-29T02:07:57;6.80;99.90
21312;DHT22;18076;52.154;10.570;2022-09-29T02:10:26;6.70;99.90
21312;DHT22;18076;52.154;10.570;2022-09-29T02:12:53;6.70;99.90
21312;DHT22;18076;52.154;10.570;2022-09-29T02:15:22;6.60;99.90
21312;DHT22;18076;52.154;10.570;2022-09-29T02:17:51;6.60;99.90
21312;DHT22;18076;52.154;10.570;2022-09-29T02:20:18;6.60;99.90
21312;DHT22;18076;52.154;10.570;2022-09-29T02:22:43;6.50;99.90
21312;DHT22;18076;52.154;10.570;2022-09-29T02:25:10;6.50;99.90
21312;DHT22;18076;52.154;10.570;2022-09-29T02:27:36;6.60;99.90
21312;DHT22;18076;52.154;10.570;2022-09-29T02:30:02;6.50;99.90
21312;DHT22;18076;52.154;10.570;2022-09-29T02:32:28;6.40;99.90
21312;DHT22;18076;52.154;10.570;2022-09-29T02:34:54;6.40;99.90
21312;DHT22;18076;52.154;10.570;2022-09-29T02:50:12;6.20;99.90
21312;DHT22;18076;52.154;10.570;2022-09-29T02:58:02;6.20;99.90
21312;DHT22;18076;52.154;10.570;2022-09-29T03:00:31;6.10;99.90
21312;DHT22;18076;52.154;10.570;2022-09-29T03:02:57;6.20;99.90
21312;DHT22;18076;52.154;10.570;2022-09-29T03:05:22;6.10;99.90
21312;DHT22;18076;52.154;10.570;2022-09-29T03:07:49;6.10;99.90
21312;DHT22;18076;52.154;10.570;2022-09-29T03:10:15;6.00;99.90
21312;DHT22;18076;52.154;10.570;2022-09-29T03:12:41;6.10;99.90
21312;DHT22;18076;52.154;10.570;2022-09-29T03:15:07;6.10;99.90
21312;DHT22;18076;52.154;10.570;2022-09-29T03:17:33;6.10;99.90
21312;DHT22;18076;52.154;10.570;2022-09-29T03:19:59;6.00;99.90
21312;DHT22;18076;52.154;10.570;2022-09-29T03:22:24;6.00;99.90
21312;DHT22;18076;52.154;10.570;2022-09-29T03:24:50;5.90;99.90
21312;DHT22;18076;52.154;10.570;2022-09-29T03:27:16;5.90;99.90
21312;DHT22;18076;52.154;10.570;2022-09-29T03:29:41;5.80;99.90
21312;DHT22;18076;52.154;10.570;2022-09-29T03:32:07;5.80;99.90
21312;DHT22;18076;52.154;10.570;2022-09-29T03:34:32;5.80;99.90
21312;DHT22;18076;52.154;10.570;2022-09-29T03:36:58;5.70;99.90
21312;DHT22;18076;52.154;10.570;2022-09-29T03:39:24;5.70;99.90
21312;DHT22;18076;52.154;10.570;2022-09-29T03:41:49;5.70;99.90
21312;DHT22;18076;52.154;10.570;2022-09-29T03:44:15;5.70;99.90
21312;DHT22;18076;52.154;10.570;2022-09-29T03:46:41;5.70;99.90
21312;DHT22;18076;52.154;10.570;2022-09-29T03:49:08;5.60;99.90
21312;DHT22;18076;52.154;10.570;2022-09-29T03:51:34;5.70;99.90
21312;DHT22;18076;52.154;10.570;2022-09-29T03:53:59;5.80;99.90
21312;DHT22;18076;52.154;10.570;2022-09-29T03:56:25;5.80;99.90
21312;DHT22;18076;52.154;10.570;2022-09-29T03:58:50;5.70;99.90
21312;DHT22;18076;52.154;10.570;2022-09-29T04:01:16;5.60;99.90
21312;DHT22;18076;52.154;10.570;2022-09-29T04:03:41;5.60;99.90
21312;DHT22;18076;52.154;10.570;2022-09-29T04:06:07;5.60;99.90
21312;DHT22;18076;52.154;10.570;2022-09-29T04:08:34;5.60;99.90
21312;DHT22;18076;52.154;10.570;2022-09-29T04:11:00;5.60;99.90
21312;DHT22;18076;52.154;10.570;2022-09-29T04:13:25;5.50;99.90
21312;DHT22;18076;52.154;10.570;2022-09-29T04:15:51;5.50;99.90
21312;DHT22;18076;52.154;10.570;2022-09-29T04:18:17;5.50;99.90
21312;DHT22;18076;52.154;10.570;2022-09-29T04:20:42;5.60;99.90
21312;DHT22;18076;52.154;10.570;2022-09-29T04:23:08;5.50;99.90
21312;DHT22;18076;52.154;10.570;2022-09-29T04:25:33;5.60;99.90
21312;DHT22;18076;52.154;10.570;2022-09-29T04:27:59;5.60;99.90
21312;DHT22;18076;52.154;10.570;2022-09-29T04:30:24;5.50;99.90
21312;DHT22;18076;52.154;10.570;2022-09-29T04:32:50;5.40;99.90
21312;DHT22;18076;52.154;10.570;2022-09-29T04:35:15;5.40;99.90
21312;DHT22;18076;52.154;10.570;2022-09-29T04:37:41;5.30;99.90
21312;DHT22;18076;52.154;10.570;2022-09-29T04:40:07;5.30;99.90
21312;DHT22;18076;52.154;10.570;2022-09-29T04:42:32;5.30;99.90
21312;DHT22;18076;52.154;10.570;2022-09-29T04:44:58;5.30;99.90
21312;DHT22;18076;52.154;10.570;2022-09-29T04:47:24;5.20;99.90
21312;DHT22;18076;52.154;10.570;2022-09-29T04:49:49;5.20;99.90
21312;DHT22;18076;52.154;10.570;2022-09-29T04:52:15;5.10;99.90
21312;DHT22;18076;52.154;10.570;2022-09-29T04:54:40;5.10;99.90
21312;DHT22;18076;52.154;10.570;2022-09-29T04:57:06;5.10;99.90
21312;DHT22;18076;52.154;10.570;2022-09-29T04:59:32;5.10;99.90
21312;DHT22;18076;52.154;10.570;2022-09-29T05:01:57;5.10;99.90
21312;DHT22;18076;52.154;10.570;2022-09-29T05:04:23;5.10;99.90
21312;DHT22;18076;52.154;10.570;2022-09-29T05:06:48;5.00;99.90
21312;DHT22;18076;52.154;10.570;2022-09-29T05:09:14;5.00;99.90
21312;DHT22;18076;52.154;10.570;2022-09-29T05:11:39;5.00;99.90
21312;DHT22;18076;52.154;10.570;2022-09-29T05:14:05;5.00;99.90
21312;DHT22;18076;52.154;10.570;2022-09-29T05:16:30;5.00;99.90
21312;DHT22;18076;52.154;10.570;2022-09-29T05:18:56;5.10;99.90
21312;DHT22;18076;52.154;10.570;2022-09-29T05:21:22;5.00;99.90
21312;DHT22;18076;52.154;10.570;2022-09-29T05:23:47;4.90;99.90
21312;DHT22;18076;52.154;10.570;2022-09-29T05:26:13;5.00;99.90
21312;DHT22;18076;52.154;10.570;2022-09-29T05:28:42;4.90;99.90
21312;DHT22;18076;52.154;10.570;2022-09-29T05:31:07;4.90;99.90
21312;DHT22;18076;52.154;10.570;2022-09-29T05:33:33;4.90;99.90
21312;DHT22;18076;52.154;10.570;2022-09-29T05:35:59;4.90;99.90
21312;DHT22;18076;52.154;10.570;2022-09-29T05:38:25;5.00;99.90
21312;DHT22;18076;52.154;10.570;2022-09-29T05:40:51;5.10;99.90
21312;DHT22;18076;52.154;10.570;2022-09-29T05:43:17;5.10;99.90
21312;DHT22;18076;52.154;10.570;2022-09-29T05:45:43;5.40;99.90
21312;DHT22;18076;52.154;10.570;2022-09-29T05:48:08;5.60;99.90
21312;DHT22;18076;52.154;10.570;2022-09-29T05:50:34;6.00;99.90
21312;DHT22;18076;52.154;10.570;2022-09-29T05:53:09;6.50;99.90
21312;DHT22;18076;52.154;10.570;2022-09-29T05:55:38;7.00;99.90
21312;DHT22;18076;52.154;10.570;2022-09-29T05:58:04;7.70;99.90
21312;DHT22;18076;52.154;10.570;2022-09-29T06:00:30;8.20;99.90
21312;DHT22;18076;52.154;10.570;2022-09-29T06:02:59;8.70;99.90
21312;DHT22;18076;52.154;10.570;2022-09-29T06:05:25;9.30;99.90
21312;DHT22;18076;52.154;10.570;2022-09-29T06:07:50;10.00;99.90
21312;DHT22;18076;52.154;10.570;2022-09-29T06:10:16;10.50;99.90
21312;DHT22;18076;52.154;10.570;2022-09-29T06:12:41;11.00;99.90
21312;DHT22;18076;52.154;10.570;2022-09-29T06:15:07;11.50;99.90
21312;DHT22;18076;52.154;10.570;2022-09-29T06:17:32;11.80;99.90
21312;DHT22;18076;52.154;10.570;2022-09-29T06:19:59;12.20;99.90
21312;DHT22;18076;52.154;10.570;2022-09-29T06:22:25;12.60;99.90
21312;DHT22;18076;52.154;10.570;2022-09-29T06:24:52;12.80;99.90
21312;DHT22;18076;52.154;10.570;2022-09-29T06:27:17;13.10;99.90
21312;DHT22;18076;52.154;10.570;2022-09-29T06:29:43;13.20;99.90
21312;DHT22;18076;52.154;10.570;2022-09-29T06:32:08;13.40;99.90
21312;DHT22;18076;52.154;10.570;2022-09-29T06:34:34;13.70;99.90
21312;DHT22;18076;52.154;10.570;2022-09-29T06:36:59;13.80;99.90
21312;DHT22;18076;52.154;10.570;2022-09-29T06:39:44;14.00;99.90
21312;DHT22;18076;52.154;10.570;2022-09-29T06:42:09;14.30;99.90
21312;DHT22;18076;52.154;10.570;2022-09-29T06:44:36;14.30;99.90
21312;DHT22;18076;52.154;10.570;2022-09-29T06:47:01;14.40;99.90
21312;DHT22;18076;52.154;10.570;2022-09-29T06:49:27;14.40;99.90
21312;DHT22;18076;52.154;10.570;2022-09-29T06:51:52;14.40;99.90
21312;DHT22;18076;52.154;10.570;2022-09-29T06:54:21;14.40;99.90
21312;DHT22;18076;52.154;10.570;2022-09-29T06:56:50;14.40;99.90
21312;DHT22;18076;52.154;10.570;2022-09-29T06:59:16;14.70;99.90
21312;DHT22;18076;52.154;10.570;2022-09-29T07:01:41;15.00;99.90
21312;DHT22;18076;52.154;10.570;2022-09-29T07:04:07;15.10;99.90
21312;DHT22;18076;52.154;10.570;2022-09-29T07:06:32;15.20;99.90
21312;DHT22;18076;52.154;10.570;2022-09-29T07:08:59;15.10;99.90
21312;DHT22;18076;52.154;10.570;2022-09-29T07:11:25;15.20;99.90
21312;DHT22;18076;52.154;10.570;2022-09-29T07:13:52;15.10;99.90
21312;DHT22;18076;52.154;10.570;2022-09-29T07:16:20;14.90;99.90
21312;DHT22;18076;52.154;10.570;2022-09-29T07:18:49;14.50;99.90
21312;DHT22;18076;52.154;10.570;2022-09-29T07:21:15;14.30;99.90
21312;DHT22;18076;52.154;10.570;2022-09-29T07:23:42;14.40;99.90
21312;DHT22;18076;52.154;10.570;2022-09-29T07:26:08;14.60;99.90
21312;DHT22;18076;52.154;10.570;2022-09-29T07:28:34;14.80;99.90
21312;DHT22;18076;52.154;10.570;2022-09-29T07:31:01;14.80;99.90
21312;DHT22;18076;52.154;10.570;2022-09-29T07:33:26;15.00;99.90
21312;DHT22;18076;52.154;10.570;2022-09-29T07:35:52;15.10;99.90
21312;DHT22;18076;52.154;10.570;2022-09-29T07:38:18;15.40;99.90
21312;DHT22;18076;52.154;10.570;2022-09-29T07:40:43;15.80;99.90
21312;DHT22;18076;52.154;10.570;2022-09-29T07:43:09;15.80;99.90
21312;DHT22;18076;52.154;10.570;2022-09-29T07:45:34;16.10;99.90
21312;DHT22;18076;52.154;10.570;2022-09-29T07:48:00;16.20;99.90
21312;DHT22;18076;52.154;10.570;2022-09-29T07:50:25;16.40;99.90
21312;DHT22;18076;52.154;10.570;2022-09-29T07:52:51;16.50;99.90
21312;DHT22;18076;52.154;10.570;2022-09-29T07:55:16;16.60;99.90
21312;DHT22;18076;52.154;10.570;2022-09-29T07:57:42;16.70;99.90
21312;DHT22;18076;52.154;10.570;2022-09-29T08:00:08;16.70;99.90
21312;DHT22;18076;52.154;10.570;2022-09-29T08:02:34;16.70;99.90
21312;DHT22;18076;52.154;10.570;2022-09-29T08:04:59;16.80;99.90
21312;DHT22;18076;52.154;10.570;2022-09-29T08:07:25;16.60;99.90
21312;DHT22;18076;52.154;10.570;2022-09-29T08:09:50;16.80;99.90
21312;DHT22;18076;52.154;10.570;2022-09-29T08:12:16;17.00;99.90
21312;DHT22;18076;52.154;10.570;2022-09-29T08:14:41;16.90;99.90
21312;DHT22;18076;52.154;10.570;2022-09-29T08:17:07;17.30;99.90
21312;DHT22;18076;52.154;10.570;2022-09-29T08:19:33;17.50;99.90
21312;DHT22;18076;52.154;10.570;2022-09-29T08:21:58;18.00;99.90
21312;DHT22;18076;52.154;10.570;2022-09-29T08:24:24;18.30;99.90
21312;DHT22;18076;52.154;10.570;2022-09-29T08:26:49;18.50;99.90
21312;DHT22;18076;52.154;10.570;2022-09-29T08:29:15;18.40;99.90
21312;DHT22;18076;52.154;10.570;2022-09-29T08:31:40;18.20;99.90
21312;DHT22;18076;52.154;10.570;2022-09-29T08:34:08;18.40;99.90
21312;DHT22;18076;52.154;10.570;2022-09-29T08:36:34;18.50;99.90
21312;DHT22;18076;52.154;10.570;2022-09-29T08:39:00;18.80;99.90
21312;DHT22;18076;52.154;10.570;2022-09-29T08:43:53;19.10;99.90
21312;DHT22;18076;52.154;10.570;2022-09-29T08:48:47;19.60;99.90
21312;DHT22;18076;52.154;10.570;2022-09-29T08:51:28;19.70;99.90
21312;DHT22;18076;52.154;10.570;2022-09-29T08:53:56;19.30;99.90
21312;DHT22;18076;52.154;10.570;2022-09-29T08:56:22;19.20;99.90
21312;DHT22;18076;52.154;10.570;2022-09-29T08:58:49;19.10;99.90
21312;DHT22;18076;52.154;10.570;2022-09-29T09:01:39;19.10;99.90
21312;DHT22;18076;52.154;10.570;2022-09-29T09:06:49;19.30;99.90
21312;DHT22;18076;52.154;10.570;2022-09-29T09:12:01;19.00;99.90
21312;DHT22;18076;52.154;10.570;2022-09-29T09:22:14;19.00;99.90
21312;DHT22;18076;52.154;10.570;2022-09-29T09:24:48;18.10;99.90
21312;DHT22;18076;52.154;10.570;2022-09-29T09:27:16;17.80;99.90
21312;DHT22;18076;52.154;10.570;2022-09-29T09:29:44;17.70;99.90
21312;DHT22;18076;52.154;10.570;2022-09-29T09:32:25;17.80;99.90
21312;DHT22;18076;52.154;10.570;2022-09-29T09:37:33;18.20;99.90
21312;DHT22;18076;52.154;10.570;2022-09-29T09:42:35;19.10;99.90
21312;DHT22;18076;52.154;10.570;2022-09-29T09:45:13;19.60;99.90
21312;DHT22;18076;52.154;10.570;2022-09-29T09:47:52;19.80;99.90
21312;DHT22;18076;52.154;10.570;2022-09-29T09:50:22;19.80;99.90
21312;DHT22;18076;52.154;10.570;2022-09-29T09:53:05;19.90;99.90
21312;DHT22;18076;52.154;10.570;2022-09-29T09:55:34;20.10;99.90
21312;DHT22;18076;52.154;10.570;2022-09-29T10:03:11;19.80;99.90
21312;DHT22;18076;52.154;10.570;2022-09-29T10:05:40;19.30;99.90
21312;DHT22;18076;52.154;10.570;2022-09-29T10:08:08;19.30;99.90
21312;DHT22;18076;52.154;10.570;2022-09-29T10:10:34;19.30;99.90
21312;DHT22;18076;52.154;10.570;2022-09-29T10:13:01;19.30;99.90
21312;DHT22;18076;52.154;10.570;2022-09-29T10:15:28;19.50;99.90
21312;DHT22;18076;52.154;10.570;2022-09-29T10:18:01;19.80;99.90
21312;DHT22;18076;52.154;10.570;2022-09-29T10:20:30;20.10;99.90
21312;DHT22;18076;52.154;10.570;2022-09-29T10:23:10;20.30;99.90
21312;DHT22;18076;52.154;10.570;2022-09-29T10:25:41;20.60;99.90
21312;DHT22;18076;52.154;10.570;2022-09-29T10:28:15;20.30;99.90
21312;DHT22;18076;52.154;10.570;2022-09-29T10:30:41;20.20;99.90
21312;DHT22;18076;52.154;10.570;2022-09-29T10:33:10;19.50;99.90
21312;DHT22;18076;52.154;10.570;2022-09-29T10:35:38;19.50;99.90
21312;DHT22;18076;52.154;10.570;2022-09-29T10:38:05;19.80;99.90
21312;DHT22;18076;52.154;10.570;2022-09-29T10:40:35;20.10;99.90
21312;DHT22;18076;52.154;10.570;2022-09-29T10:43:24;20.00;99.90
21312;DHT22;18076;52.154;10.570;2022-09-29T10:45:47;20.00;99.90
21312;DHT22;18076;52.154;10.570;2022-09-29T10:48:13;19.70;99.90
21312;DHT22;18076;52.154;10.570;2022-09-29T10:50:52;19.80;99.90
21312;DHT22;18076;52.154;10.570;2022-09-29T10:53:23;19.40;99.90
21312;DHT22;18076;52.154;10.570;2022-09-29T10:55:54;18.80;99.90
21312;DHT22;18076;52.154;10.570;2022-09-29T10:58:23;18.20;99.90
21312;DHT22;18076;52.154;10.570;2022-09-29T11:00:51;18.00;99.90
21312;DHT22;18076;52.154;10.570;2022-09-29T11:03:26;17.60;99.90
21312;DHT22;18076;52.154;10.570;2022-09-29T11:05:53;17.50;99.90
21312;DHT22;18076;52.154;10.570;2022-09-29T11:08:20;17.40;99.90
21312;DHT22;18076;52.154;10.570;2022-09-29T11:11:02;17.40;99.90
21312;DHT22;18076;52.154;10.570;2022-09-29T11:13:35;17.30;99.90
21312;DHT22;18076;52.154;10.570;2022-09-29T11:16:10;17.10;99.90
21312;DHT22;18076;52.154;10.570;2022-09-29T11:18:37;17.20;99.90
21312;DHT22;18076;52.154;10.570;2022-09-29T11:26:33;17.50;99.90
21312;DHT22;18076;52.154;10.570;2022-09-29T11:29:06;17.40;99.90
21312;DHT22;18076;52.154;10.570;2022-09-29T11:31:45;17.30;99.90
21312;DHT22;18076;52.154;10.570;2022-09-29T11:36:55;18.20;99.90
21312;DHT22;18076;52.154;10.570;2022-09-29T11:49:35;18.90;99.90
21312;DHT22;18076;52.154;10.570;2022-09-29T11:54:42;18.30;99.90
21312;DHT22;18076;52.154;10.570;2022-09-29T11:57:22;18.30;99.90
21312;DHT22;18076;52.154;10.570;2022-09-29T12:07:57;18.30;99.90
21312;DHT22;18076;52.154;10.570;2022-09-29T12:10:30;18.10;99.90
21312;DHT22;18076;52.154;10.570;2022-09-29T12:13:02;18.00;99.90
21312;DHT22;18076;52.154;10.570;2022-09-29T12:18:36;18.20;99.90
21312;DHT22;18076;52.154;10.570;2022-09-29T12:21:00;18.60;99.90
21312;DHT22;18076;52.154;10.570;2022-09-29T12:23:27;19.20;99.90
21312;DHT22;18076;52.154;10.570;2022-09-29T12:28:30;19.10;99.90
21312;DHT22;18076;52.154;10.570;2022-09-29T12:31:03;18.80;99.90
21312;DHT22;18076;52.154;10.570;2022-09-29T12:33:34;18.40;99.90
21312;DHT22;18076;52.154;10.570;2022-09-29T12:41:37;17.70;99.90
21312;DHT22;18076;52.154;10.570;2022-09-29T12:49:06;16.90;99.90
21312;DHT22;18076;52.154;10.570;2022-09-29T12:51:37;16.60;99.90
21312;DHT22;18076;52.154;10.570;2022-09-29T12:56:53;16.50;99.90
21312;DHT22;18076;52.154;10.570;2022-09-29T12:59:36;16.60;99.90
21312;DHT22;18076;52.154;10.570;2022-09-29T13:04:53;16.90;99.90
21312;DHT22;18076;52.154;10.570;2022-09-29T13:10:18;16.40;99.90
21312;DHT22;18076;52.154;10.570;2022-09-29T13:13:09;16.30;99.90
21312;DHT22;18076;52.154;10.570;2022-09-29T13:18:10;16.40;99.90
21312;DHT22;18076;52.154;10.570;2022-09-29T13:20:57;16.50;99.90
21312;DHT22;18076;52.154;10.570;2022-09-29T13:28:50;16.90;99.90
21312;DHT22;18076;52.154;10.570;2022-09-29T13:31:19;16.80;99.90
21312;DHT22;18076;52.154;10.570;2022-09-29T13:33:50;16.90;99.90
21312;DHT22;18076;52.154;10.570;2022-09-29T13:36:30;17.10;99.90
21312;DHT22;18076;52.154;10.570;2022-09-29T13:39:00;17.70;99.90
21312;DHT22;18076;52.154;10.570;2022-09-29T13:51:44;18.60;99.90
21312;DHT22;18076;52.154;10.570;2022-09-29T13:56:38;18.90;99.90
21312;DHT22;18076;52.154;10.570;2022-09-29T13:59:03;19.00;99.90
21312;DHT22;18076;52.154;10.570;2022-09-29T14:01:36;19.10;99.90
21312;DHT22;18076;52.154;10.570;2022-09-29T14:06:47;19.30;99.90
21312;DHT22;18076;52.154;10.570;2022-09-29T14:09:14;18.90;99.90
21312;DHT22;18076;52.154;10.570;2022-09-29T14:11:41;18.40;99.90
21312;DHT22;18076;52.154;10.570;2022-09-29T14:14:12;18.10;99.90
21312;DHT22;18076;52.154;10.570;2022-09-29T14:19:24;17.40;99.90
21312;DHT22;18076;52.154;10.570;2022-09-29T14:21:56;17.40;99.90
21312;DHT22;18076;52.154;10.570;2022-09-29T14:29:40;16.70;99.90
21312;DHT22;18076;52.154;10.570;2022-09-29T14:32:10;16.30;99.90
21312;DHT22;18076;52.154;10.570;2022-09-29T14:34:39;16.10;99.90
21312;DHT22;18076;52.154;10.570;2022-09-29T14:37:05;15.90;99.90
21312;DHT22;18076;52.154;10.570;2022-09-29T14:39:31;15.70;99.90
21312;DHT22;18076;52.154;10.570;2022-09-29T14:41:57;15.50;99.90
21312;DHT22;18076;52.154;10.570;2022-09-29T14:50:47;15.40;99.90
21312;DHT22;18076;52.154;10.570;2022-09-29T14:55:46;15.40;99.90
21312;DHT22;18076;52.154;10.570;2022-09-29T14:58:22;15.50;99.90
21312;DHT22;18076;52.154;10.570;2022-09-29T15:03:26;15.50;99.90
21312;DHT22;18076;52.154;10.570;2022-09-29T15:08:37;15.40;99.90
21312;DHT22;18076;52.154;10.570;2022-09-29T15:11:21;15.40;99.90
21312;DHT22;18076;52.154;10.570;2022-09-29T15:13:47;15.50;99.90
21312;DHT22;18076;52.154;10.570;2022-09-29T15:16:19;15.50;99.90
21312;DHT22;18076;52.154;10.570;2022-09-29T15:27:01;15.80;99.90
21312;DHT22;18076;52.154;10.570;2022-09-29T15:29:27;16.10;99.90
21312;DHT22;18076;52.154;10.570;2022-09-29T15:31:53;16.20;99.90
21312;DHT22;18076;52.154;10.570;2022-09-29T15:34:19;16.30;99.90
21312;DHT22;18076;52.154;10.570;2022-09-29T15:36:46;16.40;99.90
21312;DHT22;18076;52.154;10.570;2022-09-29T15:39:22;16.50;99.90
21312;DHT22;18076;52.154;10.570;2022-09-29T15:42:00;16.50;99.90
21312;DHT22;18076;52.154;10.570;2022-09-29T15:44:26;16.40;99.90
21312;DHT22;18076;52.154;10.570;2022-09-29T15:46:55;16.40;99.90
21312;DHT22;18076;52.154;10.570;2022-09-29T15:49:22;16.40;99.90
21312;DHT22;18076;52.154;10.570;2022-09-29T15:54:20;16.20;99.90
21312;DHT22;18076;52.154;10.570;2022-09-29T15:56:46;16.10;99.90
21312;DHT22;18076;52.154;10.570;2022-09-29T15:59:41;15.90;99.90
21312;DHT22;18076;52.154;10.570;2022-09-29T16:02:18;15.90;99.90
21312;DHT22;18076;52.154;10.570;2022-09-29T16:04:45;15.80;99.90
21312;DHT22;18076;52.154;10.570;2022-09-29T16:07:18;15.90;99.90
21312;DHT22;18076;52.154;10.570;2022-09-29T16:09:45;15.90;99.90
21312;DHT22;18076;52.154;10.570;2022-09-29T16:12:12;15.80;99.90
21312;DHT22;18076;52.154;10.570;2022-09-29T16:14:44;15.70;99.90
21312;DHT22;18076;52.154;10.570;2022-09-29T16:17:09;15.60;99.90
21312;DHT22;18076;52.154;10.570;2022-09-29T16:19:36;15.50;99.90
21312;DHT22;18076;52.154;10.570;2022-09-29T16:22:03;15.40;99.90
21312;DHT22;18076;52.154;10.570;2022-09-29T16:24:32;15.30;99.90
21312;DHT22;18076;52.154;10.570;2022-09-29T16:27:00;15.30;99.90
21312;DHT22;18076;52.154;10.570;2022-09-29T16:29:30;15.20;99.90
21312;DHT22;18076;52.154;10.570;2022-09-29T16:31:56;15.10;99.90
21312;DHT22;18076;52.154;10.570;2022-09-29T16:34:27;15.00;99.90
21312;DHT22;18076;52.154;10.570;2022-09-29T16:39:22;14.80;99.90
21312;DHT22;18076;52.154;10.570;2022-09-29T16:41:49;14.60;99.90
21312;DHT22;18076;52.154;10.570;2022-09-29T16:46:55;14.40;99.90
21312;DHT22;18076;52.154;10.570;2022-09-29T16:49:26;14.30;99.90
21312;DHT22;18076;52.154;10.570;2022-09-29T16:51:53;14.20;99.90
21312;DHT22;18076;52.154;10.570;2022-09-29T16:54:32;14.00;99.90
21312;DHT22;18076;52.154;10.570;2022-09-29T16:57:25;13.90;99.90
21312;DHT22;18076;52.154;10.570;2022-09-29T16:59:51;13.80;99.90
21312;DHT22;18076;52.154;10.570;2022-09-29T17:02:17;13.70;99.90
21312;DHT22;18076;52.154;10.570;2022-09-29T17:04:42;13.60;99.90
21312;DHT22;18076;52.154;10.570;2022-09-29T17:07:14;13.40;99.90
21312;DHT22;18076;52.154;10.570;2022-09-29T17:09:42;13.30;99.90
21312;DHT22;18076;52.154;10.570;2022-09-29T17:12:11;13.30;99.90
21312;DHT22;18076;52.154;10.570;2022-09-29T17:14:37;13.20;99.90
21312;DHT22;18076;52.154;10.570;2022-09-29T17:17:03;13.10;99.90
21312;DHT22;18076;52.154;10.570;2022-09-29T17:19:29;13.00;99.90
21312;DHT22;18076;52.154;10.570;2022-09-29T17:21:54;12.90;99.90
21312;DHT22;18076;52.154;10.570;2022-09-29T17:24:20;12.80;99.90
21312;DHT22;18076;52.154;10.570;2022-09-29T17:26:46;12.70;99.90
21312;DHT22;18076;52.154;10.570;2022-09-29T17:29:30;12.60;99.90
21312;DHT22;18076;52.154;10.570;2022-09-29T17:31:55;12.50;99.90
21312;DHT22;18076;52.154;10.570;2022-09-29T17:34:21;12.40;99.90
21312;DHT22;18076;52.154;10.570;2022-09-29T17:36:53;12.40;99.90
21312;DHT22;18076;52.154;10.570;2022-09-29T17:39:19;12.40;99.90
21312;DHT22;18076;52.154;10.570;2022-09-29T17:41:46;12.40;99.90
21312;DHT22;18076;52.154;10.570;2022-09-29T17:44:13;12.40;99.90
21312;DHT22;18076;52.154;10.570;2022-09-29T17:46:39;12.40;99.90
21312;DHT22;18076;52.154;10.570;2022-09-29T17:49:04;12.30;99.90
21312;DHT22;18076;52.154;10.570;2022-09-29T17:51:33;12.20;99.90
21312;DHT22;18076;52.154;10.570;2022-09-29T17:53:59;12.10;99.90
21312;DHT22;18076;52.154;10.570;2022-09-29T17:56:24;12.00;99.90
21312;DHT22;18076;52.154;10.570;2022-09-29T17:58:51;11.90;99.90
21312;DHT22;18076;52.154;10.570;2022-09-29T18:01:18;11.90;99.90
21312;DHT22;18076;52.154;10.570;2022-09-29T18:03:44;11.80;99.90
21312;DHT22;18076;52.154;10.570;2022-09-29T18:06:12;11.70;99.90
21312;DHT22;18076;52.154;10.570;2022-09-29T18:08:39;11.70;99.90
21312;DHT22;18076;52.154;10.570;2022-09-29T18:11:04;11.60;99.90
21312;DHT22;18076;52.154;10.570;2022-09-29T18:13:30;11.50;99.90
21312;DHT22;18076;52.154;10.570;2022-09-29T18:15:59;11.50;99.90
21312;DHT22;18076;52.154;10.570;2022-09-29T18:18:25;11.40;99.90
21312;DHT22;18076;52.154;10.570;2022-09-29T18:20:51;11.30;99.90
21312;DHT22;18076;52.154;10.570;2022-09-29T18:23:17;11.30;99.90
21312;DHT22;18076;52.154;10.570;2022-09-29T18:25:44;11.20;99.90
21312;DHT22;18076;52.154;10.570;2022-09-29T18:28:11;11.20;99.90
21312;DHT22;18076;52.154;10.570;2022-09-29T18:30:37;11.20;99.90
21312;DHT22;18076;52.154;10.570;2022-09-29T18:33:08;11.20;99.90
21312;DHT22;18076;52.154;10.570;2022-09-29T18:35:37;11.20;99.90
21312;DHT22;18076;52.154;10.570;2022-09-29T18:38:05;11.10;99.90